sensor_id;sensor_type;location;lat;lon;timestamp;temperature;humidity
20174;DHT22;10246;50.620;7.232;2022-10-04T00:00:58;9.90;13.00
20174;DHT22;10246;50.620;7.232;2022-10-04T00:03:28;9.90;13.90
20174;DHT22;10246;50.620;7.232;2022-10-04T00:05:58;10.00;13.30
20174;DHT22;10246;50.620;7.232;2022-10-04T00:08:29;10.00;14.70
20174;DHT22;10246;50.620;7.232;2022-10-04T00:11:06;9.90;15.40
20174;DHT22;10246;50.620;7.232;2022-10-04T00:13:33;9.90;14.60
20174;DHT22;10246;50.620;7.232;2022-10-04T00:16:03;9.80;14.70
20174;DHT22;10246;50.620;7.232;2022-10-04T00:18:37;9.80;14.90
20174;DHT22;10246;50.620;7.232;2022-10-04T00:21:05;9.80;14.80
20174;DHT22;10246;50.620;7.232;2022-10-04T00:23:44;9.70;14.10
20174;DHT22;10246;50.620;7.232;2022-10-04T00:29:34;9.70;14.40
20174;DHT22;10246;50.620;7.232;2022-10-04T00:32:25;9.80;13.80
20174;DHT22;10246;50.620;7.232;2022-10-04T00:34:53;9.80;12.90
20174;DHT22;10246;50.620;7.232;2022-10-04T00:37:21;9.90;13.00
20174;DHT22;10246;50.620;7.232;2022-10-04T00:39:58;9.90;13.00
20174;DHT22;10246;50.620;7.232;2022-10-04T00:42:37;9.90;13.00
20174;DHT22;10246;50.620;7.232;2022-10-04T00:45:17;9.80;11.80
20174;DHT22;10246;50.620;7.232;2022-10-04T00:50:48;9.80;12.80
20174;DHT22;10246;50.620;7.232;2022-10-04T00:53:22;9.90;13.00
20174;DHT22;10246;50.620;7.232;2022-10-04T00:55:54;9.90;13.00
20174;DHT22;10246;50.620;7.232;2022-10-04T00:58:24;10.00;12.30
20174;DHT22;10246;50.620;7.232;2022-10-04T01:00:53;10.00;12.30
20174;DHT22;10246;50.620;7.232;2022-10-04T01:03:26;10.00;12.30
20174;DHT22;10246;50.620;7.232;2022-10-04T01:05:57;10.00;13.00
20174;DHT22;10246;50.620;7.232;2022-10-04T01:08:28;10.00;13.30
20174;DHT22;10246;50.620;7.232;2022-10-04T01:10:59;10.10;13.70
20174;DHT22;10246;50.620;7.232;2022-10-04T01:13:29;10.00;12.30
20174;DHT22;10246;50.620;7.232;2022-10-04T01:16:00;9.80;12.90
20174;DHT22;10246;50.620;7.232;2022-10-04T01:18:32;9.70;12.80
20174;DHT22;10246;50.620;7.232;2022-10-04T01:21:02;9.70;13.20
20174;DHT22;10246;50.620;7.232;2022-10-04T01:23:40;9.60;14.70
20174;DHT22;10246;50.620;7.232;2022-10-04T01:26:38;9.70;15.40
20174;DHT22;10246;50.620;7.232;2022-10-04T01:29:10;9.80;16.30
20174;DHT22;10246;50.620;7.232;2022-10-04T01:31:40;9.90;16.20
20174;DHT22;10246;50.620;7.232;2022-10-04T01:34:08;9.90;15.90
20174;DHT22;10246;50.620;7.232;2022-10-04T01:36:37;9.90;15.80
20174;DHT22;10246;50.620;7.232;2022-10-04T01:39:06;9.80;15.40
20174;DHT22;10246;50.620;7.232;2022-10-04T01:41:40;9.80;14.80
20174;DHT22;10246;50.620;7.232;2022-10-04T01:44:11;9.80;13.80
20174;DHT22;10246;50.620;7.232;2022-10-04T01:46:42;9.70;14.40
20174;DHT22;10246;50.620;7.232;2022-10-04T01:49:12;9.70;14.80
20174;DHT22;10246;50.620;7.232;2022-10-04T01:51:46;9.80;15.30
20174;DHT22;10246;50.620;7.232;2022-10-04T01:54:18;9.90;15.40
20174;DHT22;10246;50.620;7.232;2022-10-04T01:56:50;9.90;15.60
20174;DHT22;10246;50.620;7.232;2022-10-04T01:59:22;9.90;15.40
20174;DHT22;10246;50.620;7.232;2022-10-04T02:01:52;9.90;15.40
20174;DHT22;10246;50.620;7.232;2022-10-04T02:04:24;9.90;14.90
20174;DHT22;10246;50.620;7.232;2022-10-04T02:06:55;9.80;14.70
20174;DHT22;10246;50.620;7.232;2022-10-04T02:09:26;9.80;15.30
20174;DHT22;10246;50.620;7.232;2022-10-04T02:11:54;9.70;16.30
20174;DHT22;10246;50.620;7.232;2022-10-04T02:14:24;9.70;17.20
20174;DHT22;10246;50.620;7.232;2022-10-04T02:16:52;9.70;18.10
20174;DHT22;10246;50.620;7.232;2022-10-04T02:19:20;9.70;18.80
20174;DHT22;10246;50.620;7.232;2022-10-04T02:21:49;9.70;19.20
20174;DHT22;10246;50.620;7.232;2022-10-04T02:24:16;9.80;19.50
20174;DHT22;10246;50.620;7.232;2022-10-04T02:26:49;9.80;19.60
20174;DHT22;10246;50.620;7.232;2022-10-04T02:29:17;9.90;19.60
20174;DHT22;10246;50.620;7.232;2022-10-04T02:31:45;10.00;18.50
20174;DHT22;10246;50.620;7.232;2022-10-04T02:34:30;10.00;18.10
20174;DHT22;10246;50.620;7.232;2022-10-04T02:37:00;10.10;18.10
20174;DHT22;10246;50.620;7.232;2022-10-04T02:39:31;10.10;17.70
20174;DHT22;10246;50.620;7.232;2022-10-04T02:42:03;10.20;17.50
20174;DHT22;10246;50.620;7.232;2022-10-04T02:44:40;10.20;17.30
20174;DHT22;10246;50.620;7.232;2022-10-04T02:47:12;10.20;17.20
20174;DHT22;10246;50.620;7.232;2022-10-04T02:49:44;10.20;17.20
20174;DHT22;10246;50.620;7.232;2022-10-04T02:52:14;10.30;17.30
20174;DHT22;10246;50.620;7.232;2022-10-04T02:54:50;10.30;17.20
20174;DHT22;10246;50.620;7.232;2022-10-04T02:57:22;10.30;17.30
20174;DHT22;10246;50.620;7.232;2022-10-04T02:59:49;10.40;17.50
20174;DHT22;10246;50.620;7.232;2022-10-04T03:02:23;10.40;17.50
20174;DHT22;10246;50.620;7.232;2022-10-04T03:04:51;10.30;17.60
20174;DHT22;10246;50.620;7.232;2022-10-04T03:07:18;10.30;17.60
20174;DHT22;10246;50.620;7.232;2022-10-04T03:09:45;10.30;17.70
20174;DHT22;10246;50.620;7.232;2022-10-04T03:12:13;10.30;18.00
20174;DHT22;10246;50.620;7.232;2022-10-04T03:14:42;10.20;17.90
20174;DHT22;10246;50.620;7.232;2022-10-04T03:17:10;10.20;18.50
20174;DHT22;10246;50.620;7.232;2022-10-04T03:19:39;10.20;18.60
20174;DHT22;10246;50.620;7.232;2022-10-04T03:22:08;10.10;18.90
20174;DHT22;10246;50.620;7.232;2022-10-04T03:24:38;10.10;19.10
20174;DHT22;10246;50.620;7.232;2022-10-04T03:27:13;10.10;19.20
20174;DHT22;10246;50.620;7.232;2022-10-04T03:29:43;10.10;19.40
20174;DHT22;10246;50.620;7.232;2022-10-04T03:32:12;10.10;19.90
20174;DHT22;10246;50.620;7.232;2022-10-04T03:34:41;10.10;20.30
20174;DHT22;10246;50.620;7.232;2022-10-04T03:37:15;10.00;20.30
20174;DHT22;10246;50.620;7.232;2022-10-04T03:39:45;10.10;20.60
20174;DHT22;10246;50.620;7.232;2022-10-04T03:42:14;10.10;20.40
20174;DHT22;10246;50.620;7.232;2022-10-04T03:44:45;10.10;20.30
20174;DHT22;10246;50.620;7.232;2022-10-04T03:47:14;10.10;20.30
20174;DHT22;10246;50.620;7.232;2022-10-04T03:49:43;10.10;20.10
20174;DHT22;10246;50.620;7.232;2022-10-04T03:52:18;10.10;20.10
20174;DHT22;10246;50.620;7.232;2022-10-04T03:54:46;10.10;20.30
20174;DHT22;10246;50.620;7.232;2022-10-04T03:57:13;10.10;20.00
20174;DHT22;10246;50.620;7.232;2022-10-04T03:59:42;10.10;19.90
20174;DHT22;10246;50.620;7.232;2022-10-04T04:02:15;10.10;19.80
20174;DHT22;10246;50.620;7.232;2022-10-04T04:04:49;10.10;20.00
20174;DHT22;10246;50.620;7.232;2022-10-04T04:07:25;10.10;20.10
20174;DHT22;10246;50.620;7.232;2022-10-04T04:10:00;10.00;20.10
20174;DHT22;10246;50.620;7.232;2022-10-04T04:12:34;10.00;19.90
20174;DHT22;10246;50.620;7.232;2022-10-04T04:15:05;10.00;19.90
20174;DHT22;10246;50.620;7.232;2022-10-04T04:17:38;9.90;20.60
20174;DHT22;10246;50.620;7.232;2022-10-04T04:20:16;9.90;20.90
20174;DHT22;10246;50.620;7.232;2022-10-04T04:22:47;9.90;20.90
20174;DHT22;10246;50.620;7.232;2022-10-04T04:25:16;9.90;21.00
20174;DHT22;10246;50.620;7.232;2022-10-04T04:27:48;9.90;20.60
20174;DHT22;10246;50.620;7.232;2022-10-04T04:30:18;9.80;20.60
20174;DHT22;10246;50.620;7.232;2022-10-04T04:32:48;9.90;20.70
20174;DHT22;10246;50.620;7.232;2022-10-04T04:35:21;9.90;20.60
20174;DHT22;10246;50.620;7.232;2022-10-04T04:38:02;9.90;20.80
20174;DHT22;10246;50.620;7.232;2022-10-04T04:40:29;10.00;19.90
20174;DHT22;10246;50.620;7.232;2022-10-04T04:42:57;10.00;19.30
20174;DHT22;10246;50.620;7.232;2022-10-04T04:45:28;10.00;18.80
20174;DHT22;10246;50.620;7.232;2022-10-04T04:47:57;10.00;18.20
20174;DHT22;10246;50.620;7.232;2022-10-04T04:50:27;10.00;18.00
20174;DHT22;10246;50.620;7.232;2022-10-04T04:52:58;10.00;17.70
20174;DHT22;10246;50.620;7.232;2022-10-04T04:55:32;10.00;17.60
20174;DHT22;10246;50.620;7.232;2022-10-04T04:58:00;10.00;17.60
20174;DHT22;10246;50.620;7.232;2022-10-04T05:00:30;9.90;19.00
20174;DHT22;10246;50.620;7.232;2022-10-04T05:03:00;9.80;19.10
20174;DHT22;10246;50.620;7.232;2022-10-04T05:05:28;9.80;19.30
20174;DHT22;10246;50.620;7.232;2022-10-04T05:08:13;9.80;19.30
20174;DHT22;10246;50.620;7.232;2022-10-04T05:10:43;9.70;19.40
20174;DHT22;10246;50.620;7.232;2022-10-04T05:13:12;9.70;19.80
20174;DHT22;10246;50.620;7.232;2022-10-04T05:15:41;9.60;20.30
20174;DHT22;10246;50.620;7.232;2022-10-04T05:18:14;9.70;20.20
20174;DHT22;10246;50.620;7.232;2022-10-04T05:20:48;9.70;19.80
20174;DHT22;10246;50.620;7.232;2022-10-04T05:23:15;9.70;19.50
20174;DHT22;10246;50.620;7.232;2022-10-04T05:25:43;9.60;19.40
20174;DHT22;10246;50.620;7.232;2022-10-04T05:28:10;9.60;19.30
20174;DHT22;10246;50.620;7.232;2022-10-04T05:30:47;9.70;19.20
20174;DHT22;10246;50.620;7.232;2022-10-04T05:33:21;9.60;18.80
20174;DHT22;10246;50.620;7.232;2022-10-04T05:36:04;9.60;18.90
20174;DHT22;10246;50.620;7.232;2022-10-04T05:38:39;9.60;18.70
20174;DHT22;10246;50.620;7.232;2022-10-04T05:41:13;9.50;18.90
20174;DHT22;10246;50.620;7.232;2022-10-04T05:43:44;9.60;19.50
20174;DHT22;10246;50.620;7.232;2022-10-04T05:46:17;9.60;19.10
20174;DHT22;10246;50.620;7.232;2022-10-04T05:48:49;9.60;19.10
20174;DHT22;10246;50.620;7.232;2022-10-04T05:51:18;9.60;19.00
20174;DHT22;10246;50.620;7.232;2022-10-04T05:53:46;9.60;18.70
20174;DHT22;10246;50.620;7.232;2022-10-04T05:56:36;9.60;18.30
20174;DHT22;10246;50.620;7.232;2022-10-04T05:59:17;9.50;18.50
20174;DHT22;10246;50.620;7.232;2022-10-04T06:01:59;9.60;19.10
20174;DHT22;10246;50.620;7.232;2022-10-04T06:04:42;9.50;19.10
20174;DHT22;10246;50.620;7.232;2022-10-04T06:07:17;9.40;19.10
20174;DHT22;10246;50.620;7.232;2022-10-04T06:10:03;9.50;19.30
20174;DHT22;10246;50.620;7.232;2022-10-04T06:12:42;9.50;19.40
20174;DHT22;10246;50.620;7.232;2022-10-04T06:15:39;9.60;19.50
20174;DHT22;10246;50.620;7.232;2022-10-04T06:18:40;9.60;19.30
20174;DHT22;10246;50.620;7.232;2022-10-04T06:21:21;9.60;19.00
20174;DHT22;10246;50.620;7.232;2022-10-04T06:23:54;9.70;18.90
20174;DHT22;10246;50.620;7.232;2022-10-04T06:26:24;9.70;18.80
20174;DHT22;10246;50.620;7.232;2022-10-04T06:28:55;9.80;18.20
20174;DHT22;10246;50.620;7.232;2022-10-04T06:31:39;9.70;17.70
20174;DHT22;10246;50.620;7.232;2022-10-04T06:34:34;9.80;17.20
20174;DHT22;10246;50.620;7.232;2022-10-04T06:37:13;9.80;17.30
20174;DHT22;10246;50.620;7.232;2022-10-04T06:39:55;9.80;17.00
20174;DHT22;10246;50.620;7.232;2022-10-04T06:42:41;9.80;17.10
20174;DHT22;10246;50.620;7.232;2022-10-04T06:45:26;9.90;17.50
20174;DHT22;10246;50.620;7.232;2022-10-04T06:48:13;10.00;16.80
20174;DHT22;10246;50.620;7.232;2022-10-04T06:50:48;10.10;16.90
20174;DHT22;10246;50.620;7.232;2022-10-04T06:53:24;10.10;16.70
20174;DHT22;10246;50.620;7.232;2022-10-04T06:56:19;10.10;16.50
20174;DHT22;10246;50.620;7.232;2022-10-04T06:59:21;10.10;16.40
20174;DHT22;10246;50.620;7.232;2022-10-04T07:01:56;10.10;15.90
20174;DHT22;10246;50.620;7.232;2022-10-04T07:04:30;10.10;14.50
20174;DHT22;10246;50.620;7.232;2022-10-04T07:07:12;10.10;14.70
20174;DHT22;10246;50.620;7.232;2022-10-04T07:10:01;10.20;15.10
20174;DHT22;10246;50.620;7.232;2022-10-04T07:12:31;10.20;14.90
20174;DHT22;10246;50.620;7.232;2022-10-04T07:15:01;10.20;14.90
20174;DHT22;10246;50.620;7.232;2022-10-04T07:17:37;10.10;15.00
20174;DHT22;10246;50.620;7.232;2022-10-04T07:20:12;10.20;15.00
20174;DHT22;10246;50.620;7.232;2022-10-04T07:22:48;10.20;14.90
20174;DHT22;10246;50.620;7.232;2022-10-04T07:25:20;10.30;14.80
20174;DHT22;10246;50.620;7.232;2022-10-04T07:27:52;10.40;15.40
20174;DHT22;10246;50.620;7.232;2022-10-04T07:30:54;10.40;15.10
20174;DHT22;10246;50.620;7.232;2022-10-04T07:33:25;10.50;14.40
20174;DHT22;10246;50.620;7.232;2022-10-04T07:36:02;10.60;14.20
20174;DHT22;10246;50.620;7.232;2022-10-04T07:38:35;10.60;14.50
20174;DHT22;10246;50.620;7.232;2022-10-04T07:41:07;10.70;14.30
20174;DHT22;10246;50.620;7.232;2022-10-04T07:43:44;10.80;14.30
20174;DHT22;10246;50.620;7.232;2022-10-04T07:46:18;11.00;14.20
20174;DHT22;10246;50.620;7.232;2022-10-04T07:48:47;11.00;13.50
20174;DHT22;10246;50.620;7.232;2022-10-04T07:51:19;11.10;13.40
20174;DHT22;10246;50.620;7.232;2022-10-04T07:53:53;11.20;13.90
20174;DHT22;10246;50.620;7.232;2022-10-04T07:56:26;11.40;13.50
20174;DHT22;10246;50.620;7.232;2022-10-04T07:59:07;11.50;13.30
20174;DHT22;10246;50.620;7.232;2022-10-04T08:01:41;11.60;13.40
20174;DHT22;10246;50.620;7.232;2022-10-04T08:04:28;11.70;11.40
20174;DHT22;10246;50.620;7.232;2022-10-04T08:06:58;11.90;11.80
20174;DHT22;10246;50.620;7.232;2022-10-04T08:09:36;12.00;11.30
20174;DHT22;10246;50.620;7.232;2022-10-04T08:12:16;12.00;10.00
20174;DHT22;10246;50.620;7.232;2022-10-04T08:14:55;12.10;9.60
20174;DHT22;10246;50.620;7.232;2022-10-04T08:17:32;12.10;9.70
20174;DHT22;10246;50.620;7.232;2022-10-04T08:20:19;12.20;8.90
20174;DHT22;10246;50.620;7.232;2022-10-04T08:22:58;12.30;8.70
20174;DHT22;10246;50.620;7.232;2022-10-04T08:25:31;12.30;8.90
20174;DHT22;10246;50.620;7.232;2022-10-04T08:28:11;12.40;8.40
20174;DHT22;10246;50.620;7.232;2022-10-04T08:31:09;12.50;7.50
20174;DHT22;10246;50.620;7.232;2022-10-04T08:33:56;12.60;6.90
20174;DHT22;10246;50.620;7.232;2022-10-04T08:36:45;12.60;7.40
20174;DHT22;10246;50.620;7.232;2022-10-04T08:39:24;12.70;7.50
20174;DHT22;10246;50.620;7.232;2022-10-04T08:42:13;12.80;6.80
20174;DHT22;10246;50.620;7.232;2022-10-04T08:45:04;12.90;6.20
20174;DHT22;10246;50.620;7.232;2022-10-04T08:48:12;12.90;5.80
20174;DHT22;10246;50.620;7.232;2022-10-04T08:54:33;13.00;6.10
20174;DHT22;10246;50.620;7.232;2022-10-04T09:00:12;13.30;4.80
20174;DHT22;10246;50.620;7.232;2022-10-04T09:03:11;13.30;3.90
20174;DHT22;10246;50.620;7.232;2022-10-04T09:05:57;13.50;3.70
20174;DHT22;10246;50.620;7.232;2022-10-04T09:08:58;13.60;3.60
20174;DHT22;10246;50.620;7.232;2022-10-04T09:14:53;13.90;1.90
20174;DHT22;10246;50.620;7.232;2022-10-04T09:17:35;14.00;1.20
20174;DHT22;10246;50.620;7.232;2022-10-04T09:20:19;14.00;1.00
20174;DHT22;10246;50.620;7.232;2022-10-04T09:22:52;14.10;1.00
20174;DHT22;10246;50.620;7.232;2022-10-04T09:25:41;14.10;1.00
20174;DHT22;10246;50.620;7.232;2022-10-04T09:28:52;14.30;1.00
20174;DHT22;10246;50.620;7.232;2022-10-04T09:31:53;14.50;1.00
20174;DHT22;10246;50.620;7.232;2022-10-04T09:34:39;14.70;1.00
20174;DHT22;10246;50.620;7.232;2022-10-04T09:37:27;14.70;1.00
20174;DHT22;10246;50.620;7.232;2022-10-04T09:40:38;14.70;1.00
20174;DHT22;10246;50.620;7.232;2022-10-04T09:43:22;14.80;1.00
20174;DHT22;10246;50.620;7.232;2022-10-04T09:46:16;15.00;1.00
20174;DHT22;10246;50.620;7.232;2022-10-04T09:48:54;15.10;1.00
20174;DHT22;10246;50.620;7.232;2022-10-04T09:51:53;15.30;1.00
20174;DHT22;10246;50.620;7.232;2022-10-04T09:54:48;15.40;1.00
20174;DHT22;10246;50.620;7.232;2022-10-04T09:57:28;15.70;1.00
20174;DHT22;10246;50.620;7.232;2022-10-04T10:00:14;15.70;1.00
20174;DHT22;10246;50.620;7.232;2022-10-04T10:03:12;15.80;1.00
20174;DHT22;10246;50.620;7.232;2022-10-04T10:05:58;15.90;1.00
20174;DHT22;10246;50.620;7.232;2022-10-04T10:08:39;16.00;1.00
20174;DHT22;10246;50.620;7.232;2022-10-04T10:11:13;16.20;1.00
20174;DHT22;10246;50.620;7.232;2022-10-04T10:17:09;16.40;1.00
20174;DHT22;10246;50.620;7.232;2022-10-04T10:19:57;16.50;1.00
20174;DHT22;10246;50.620;7.232;2022-10-04T10:22:57;16.70;1.00
20174;DHT22;10246;50.620;7.232;2022-10-04T10:25:43;16.80;1.00
20174;DHT22;10246;50.620;7.232;2022-10-04T10:28:34;17.00;1.00
20174;DHT22;10246;50.620;7.232;2022-10-04T10:31:25;17.10;1.00
20174;DHT22;10246;50.620;7.232;2022-10-04T10:34:19;17.10;1.00
20174;DHT22;10246;50.620;7.232;2022-10-04T10:37:06;17.30;1.00
20174;DHT22;10246;50.620;7.232;2022-10-04T10:39:58;17.30;1.00
20174;DHT22;10246;50.620;7.232;2022-10-04T10:45:54;17.40;1.00
20174;DHT22;10246;50.620;7.232;2022-10-04T10:51:45;17.50;1.00
20174;DHT22;10246;50.620;7.232;2022-10-04T10:54:43;17.60;1.00
20174;DHT22;10246;50.620;7.232;2022-10-04T10:57:28;17.50;1.00
20174;DHT22;10246;50.620;7.232;2022-10-04T11:00:16;17.30;1.00
20174;DHT22;10246;50.620;7.232;2022-10-04T11:12:14;17.90;1.00
20174;DHT22;10246;50.620;7.232;2022-10-04T11:18:06;18.10;1.00
20174;DHT22;10246;50.620;7.232;2022-10-04T11:24:13;18.40;1.00
20174;DHT22;10246;50.620;7.232;2022-10-04T11:27:12;18.50;1.00
20174;DHT22;10246;50.620;7.232;2022-10-04T11:33:28;18.70;1.00
20174;DHT22;10246;50.620;7.232;2022-10-04T11:36:39;18.70;1.00
20174;DHT22;10246;50.620;7.232;2022-10-04T11:39:23;18.80;1.00
20174;DHT22;10246;50.620;7.232;2022-10-04T11:42:00;18.80;1.00
20174;DHT22;10246;50.620;7.232;2022-10-04T11:44:54;18.90;1.00
20174;DHT22;10246;50.620;7.232;2022-10-04T11:47:36;18.80;1.00
20174;DHT22;10246;50.620;7.232;2022-10-04T11:50:24;19.00;1.00
20174;DHT22;10246;50.620;7.232;2022-10-04T11:53:21;19.10;1.00
20174;DHT22;10246;50.620;7.232;2022-10-04T11:58:59;19.30;1.00
20174;DHT22;10246;50.620;7.232;2022-10-04T12:01:44;19.40;1.00
20174;DHT22;10246;50.620;7.232;2022-10-04T12:04:32;19.40;1.00
20174;DHT22;10246;50.620;7.232;2022-10-04T12:07:28;19.60;1.00
20174;DHT22;10246;50.620;7.232;2022-10-04T12:10:08;19.70;1.00
20174;DHT22;10246;50.620;7.232;2022-10-04T12:15:49;19.70;1.00
20174;DHT22;10246;50.620;7.232;2022-10-04T12:21:42;19.90;1.00
20174;DHT22;10246;50.620;7.232;2022-10-04T12:24:33;20.00;1.00
20174;DHT22;10246;50.620;7.232;2022-10-04T12:27:36;20.30;1.00
20174;DHT22;10246;50.620;7.232;2022-10-04T12:30:21;20.40;1.00
20174;DHT22;10246;50.620;7.232;2022-10-04T12:32:54;20.60;1.00
20174;DHT22;10246;50.620;7.232;2022-10-04T12:35:30;20.80;1.00
20174;DHT22;10246;50.620;7.232;2022-10-04T12:38:24;20.90;1.00
20174;DHT22;10246;50.620;7.232;2022-10-04T12:41:00;21.00;1.00
20174;DHT22;10246;50.620;7.232;2022-10-04T12:43:34;21.10;1.00
20174;DHT22;10246;50.620;7.232;2022-10-04T12:46:15;21.20;1.00
20174;DHT22;10246;50.620;7.232;2022-10-04T12:48:55;21.10;1.00
20174;DHT22;10246;50.620;7.232;2022-10-04T12:51:34;21.10;1.00
20174;DHT22;10246;50.620;7.232;2022-10-04T12:54:15;20.90;1.00
20174;DHT22;10246;50.620;7.232;2022-10-04T12:56:51;20.80;1.00
20174;DHT22;10246;50.620;7.232;2022-10-04T12:59:43;20.80;1.00
20174;DHT22;10246;50.620;7.232;2022-10-04T13:02:24;20.90;1.00
20174;DHT22;10246;50.620;7.232;2022-10-04T13:05:00;21.10;1.00
20174;DHT22;10246;50.620;7.232;2022-10-04T13:07:45;21.30;1.00
20174;DHT22;10246;50.620;7.232;2022-10-04T13:10:28;21.40;1.00
20174;DHT22;10246;50.620;7.232;2022-10-04T13:15:52;21.40;1.00
20174;DHT22;10246;50.620;7.232;2022-10-04T13:18:28;21.40;1.00
20174;DHT22;10246;50.620;7.232;2022-10-04T13:20:59;21.40;1.00
20174;DHT22;10246;50.620;7.232;2022-10-04T13:23:37;21.40;1.00
20174;DHT22;10246;50.620;7.232;2022-10-04T13:26:14;21.60;1.00
20174;DHT22;10246;50.620;7.232;2022-10-04T13:28:53;21.80;1.00
20174;DHT22;10246;50.620;7.232;2022-10-04T13:31:31;21.80;1.00
20174;DHT22;10246;50.620;7.232;2022-10-04T13:34:13;21.70;1.00
20174;DHT22;10246;50.620;7.232;2022-10-04T13:37:03;21.80;1.00
20174;DHT22;10246;50.620;7.232;2022-10-04T13:40:02;21.90;1.00
20174;DHT22;10246;50.620;7.232;2022-10-04T13:42:54;22.00;1.00
20174;DHT22;10246;50.620;7.232;2022-10-04T13:45:32;21.90;1.00
20174;DHT22;10246;50.620;7.232;2022-10-04T13:48:28;21.90;1.00
20174;DHT22;10246;50.620;7.232;2022-10-04T13:51:14;22.00;1.00
20174;DHT22;10246;50.620;7.232;2022-10-04T13:53:53;22.10;1.00
20174;DHT22;10246;50.620;7.232;2022-10-04T13:56:59;22.10;1.00
20174;DHT22;10246;50.620;7.232;2022-10-04T13:59:37;22.00;1.00
20174;DHT22;10246;50.620;7.232;2022-10-04T14:05:47;22.20;1.00
20174;DHT22;10246;50.620;7.232;2022-10-04T14:11:42;22.40;1.00
20174;DHT22;10246;50.620;7.232;2022-10-04T14:14:39;22.30;1.00
20174;DHT22;10246;50.620;7.232;2022-10-04T14:17:53;22.30;1.00
20174;DHT22;10246;50.620;7.232;2022-10-04T14:21:12;22.20;1.00
20174;DHT22;10246;50.620;7.232;2022-10-04T14:27:27;22.30;1.00
20174;DHT22;10246;50.620;7.232;2022-10-04T14:30:11;22.10;1.00
20174;DHT22;10246;50.620;7.232;2022-10-04T14:36:01;22.10;1.00
20174;DHT22;10246;50.620;7.232;2022-10-04T14:41:49;22.10;1.00
20174;DHT22;10246;50.620;7.232;2022-10-04T14:44:33;22.00;1.00
20174;DHT22;10246;50.620;7.232;2022-10-04T14:50:24;21.90;1.00
20174;DHT22;10246;50.620;7.232;2022-10-04T14:53:03;22.00;1.00
20174;DHT22;10246;50.620;7.232;2022-10-04T14:55:52;22.00;1.00
20174;DHT22;10246;50.620;7.232;2022-10-04T14:58:33;22.00;1.00
20174;DHT22;10246;50.620;7.232;2022-10-04T15:01:18;22.10;1.00
20174;DHT22;10246;50.620;7.232;2022-10-04T15:06:50;21.80;1.00
20174;DHT22;10246;50.620;7.232;2022-10-04T15:09:30;21.80;1.00
20174;DHT22;10246;50.620;7.232;2022-10-04T15:12:23;21.80;1.00
20174;DHT22;10246;50.620;7.232;2022-10-04T15:15:20;21.70;1.00
20174;DHT22;10246;50.620;7.232;2022-10-04T15:17:59;21.80;1.00
20174;DHT22;10246;50.620;7.232;2022-10-04T15:20:32;21.90;1.00
20174;DHT22;10246;50.620;7.232;2022-10-04T15:23:08;21.90;1.00
20174;DHT22;10246;50.620;7.232;2022-10-04T15:25:42;21.80;1.00
20174;DHT22;10246;50.620;7.232;2022-10-04T15:28:34;21.70;1.00
20174;DHT22;10246;50.620;7.232;2022-10-04T15:31:10;21.70;1.00
20174;DHT22;10246;50.620;7.232;2022-10-04T15:33:45;21.70;1.00
20174;DHT22;10246;50.620;7.232;2022-10-04T15:36:45;21.50;1.00
20174;DHT22;10246;50.620;7.232;2022-10-04T15:39:34;21.40;1.00
20174;DHT22;10246;50.620;7.232;2022-10-04T15:42:10;21.30;1.00
20174;DHT22;10246;50.620;7.232;2022-10-04T15:44:56;21.30;1.00
20174;DHT22;10246;50.620;7.232;2022-10-04T15:47:29;21.20;1.00
20174;DHT22;10246;50.620;7.232;2022-10-04T15:50:07;21.10;1.00
20174;DHT22;10246;50.620;7.232;2022-10-04T15:53:10;21.00;1.00
20174;DHT22;10246;50.620;7.232;2022-10-04T15:56:01;20.90;1.00
20174;DHT22;10246;50.620;7.232;2022-10-04T15:58:43;20.70;1.00
20174;DHT22;10246;50.620;7.232;2022-10-04T16:01:28;20.60;1.00
20174;DHT22;10246;50.620;7.232;2022-10-04T16:04:23;20.50;1.00
20174;DHT22;10246;50.620;7.232;2022-10-04T16:07:01;20.40;1.00
20174;DHT22;10246;50.620;7.232;2022-10-04T16:09:38;20.40;1.00
20174;DHT22;10246;50.620;7.232;2022-10-04T16:12:19;20.30;1.00
20174;DHT22;10246;50.620;7.232;2022-10-04T16:14:59;20.20;1.00
20174;DHT22;10246;50.620;7.232;2022-10-04T16:17:51;20.10;1.00
20174;DHT22;10246;50.620;7.232;2022-10-04T16:20:40;20.00;1.00
20174;DHT22;10246;50.620;7.232;2022-10-04T16:23:30;19.90;1.00
20174;DHT22;10246;50.620;7.232;2022-10-04T16:25:58;19.90;1.00
20174;DHT22;10246;50.620;7.232;2022-10-04T16:29:01;19.80;1.00
20174;DHT22;10246;50.620;7.232;2022-10-04T16:31:42;19.70;1.00
20174;DHT22;10246;50.620;7.232;2022-10-04T16:37:32;19.60;1.00
20174;DHT22;10246;50.620;7.232;2022-10-04T16:40:02;19.50;1.00
20174;DHT22;10246;50.620;7.232;2022-10-04T16:42:48;19.50;1.00
20174;DHT22;10246;50.620;7.232;2022-10-04T16:45:37;19.30;1.00
20174;DHT22;10246;50.620;7.232;2022-10-04T16:48:14;19.10;1.00
20174;DHT22;10246;50.620;7.232;2022-10-04T16:53:53;18.80;1.00
20174;DHT22;10246;50.620;7.232;2022-10-04T16:56:25;18.70;1.00
20174;DHT22;10246;50.620;7.232;2022-10-04T16:58:56;18.60;1.00
20174;DHT22;10246;50.620;7.232;2022-10-04T17:02:01;18.60;1.00
20174;DHT22;10246;50.620;7.232;2022-10-04T17:04:59;18.40;1.00
20174;DHT22;10246;50.620;7.232;2022-10-04T17:07:34;18.20;1.00
20174;DHT22;10246;50.620;7.232;2022-10-04T17:10:17;18.00;1.00
20174;DHT22;10246;50.620;7.232;2022-10-04T17:12:53;17.80;1.00
20174;DHT22;10246;50.620;7.232;2022-10-04T17:15:32;17.50;1.00
20174;DHT22;10246;50.620;7.232;2022-10-04T17:18:14;17.40;1.00
20174;DHT22;10246;50.620;7.232;2022-10-04T17:20:50;17.30;1.00
20174;DHT22;10246;50.620;7.232;2022-10-04T17:23:37;17.10;1.00
20174;DHT22;10246;50.620;7.232;2022-10-04T17:26:15;17.00;1.00
20174;DHT22;10246;50.620;7.232;2022-10-04T17:28:51;16.80;1.00
20174;DHT22;10246;50.620;7.232;2022-10-04T17:31:26;16.80;1.00
20174;DHT22;10246;50.620;7.232;2022-10-04T17:34:03;16.80;1.00
20174;DHT22;10246;50.620;7.232;2022-10-04T17:36:37;16.70;1.00
20174;DHT22;10246;50.620;7.232;2022-10-04T17:39:20;16.60;1.00
20174;DHT22;10246;50.620;7.232;2022-10-04T17:42:00;16.40;1.00
20174;DHT22;10246;50.620;7.232;2022-10-04T17:44:39;16.30;1.00
20174;DHT22;10246;50.620;7.232;2022-10-04T17:47:12;16.20;1.00
20174;DHT22;10246;50.620;7.232;2022-10-04T17:49:54;16.00;1.00
20174;DHT22;10246;50.620;7.232;2022-10-04T17:52:45;15.90;1.00
20174;DHT22;10246;50.620;7.232;2022-10-04T17:55:41;15.80;1.50
20174;DHT22;10246;50.620;7.232;2022-10-04T17:58:15;15.70;2.30
20174;DHT22;10246;50.620;7.232;2022-10-04T18:00:54;15.70;2.20
20174;DHT22;10246;50.620;7.232;2022-10-04T18:03:25;15.60;2.60
20174;DHT22;10246;50.620;7.232;2022-10-04T18:06:02;15.50;2.90
20174;DHT22;10246;50.620;7.232;2022-10-04T18:08:43;15.40;3.10
20174;DHT22;10246;50.620;7.232;2022-10-04T18:11:19;15.40;3.30
20174;DHT22;10246;50.620;7.232;2022-10-04T18:13:56;15.30;3.20
20174;DHT22;10246;50.620;7.232;2022-10-04T18:16:28;15.30;3.40
20174;DHT22;10246;50.620;7.232;2022-10-04T18:18:56;15.30;3.30
20174;DHT22;10246;50.620;7.232;2022-10-04T18:21:26;15.30;3.50
20174;DHT22;10246;50.620;7.232;2022-10-04T18:23:56;15.40;2.90